createdAt,value
2023-01-15T00:01:40.732Z,7.08
2023-01-15T00:04:07.852Z,7.04
2023-01-15T00:06:39.698Z,6.98
2023-01-15T00:09:08.264Z,6.98
2023-01-15T00:11:34.904Z,6.99
2023-01-15T00:14:01.461Z,7.00
2023-01-15T00:16:28.298Z,6.96
2023-01-15T00:18:57.770Z,6.98
2023-01-15T00:21:26.272Z,7.06
2023-01-15T00:24:11.838Z,7.01
2023-01-15T00:26:57.388Z,6.94
2023-01-15T00:29:24.824Z,6.99
2023-01-15T00:31:55.319Z,6.93
2023-01-15T00:34:21.900Z,6.96
2023-01-15T00:36:48.462Z,7.02
2023-01-15T00:39:14.945Z,7.01
2023-01-15T00:41:41.429Z,7.00
2023-01-15T00:44:07.936Z,7.01
2023-01-15T00:46:34.466Z,7.01
2023-01-15T00:49:01.556Z,7.01
2023-01-15T00:51:28.053Z,7.02
2023-01-15T00:53:54.459Z,6.91
2023-01-15T00:56:20.992Z,6.92
2023-01-15T00:58:47.938Z,6.97
2023-01-15T01:01:15.273Z,7.00
2023-01-15T01:03:41.983Z,6.95
2023-01-15T01:06:10.191Z,6.98
2023-01-15T01:08:36.609Z,7.01
2023-01-15T01:11:08.597Z,6.91
2023-01-15T01:13:35.263Z,6.81
2023-01-15T01:16:01.998Z,6.75
2023-01-15T01:18:28.484Z,6.85
2023-01-15T01:20:55.020Z,6.89
2023-01-15T01:23:23.854Z,6.87
2023-01-15T01:25:50.669Z,6.89
2023-01-15T01:28:17.150Z,6.75
2023-01-15T01:30:43.535Z,6.74
2023-01-15T01:33:10.012Z,6.78
2023-01-15T01:35:36.455Z,6.79
2023-01-15T01:38:02.948Z,6.77
2023-01-15T01:40:29.513Z,6.66
2023-01-15T01:42:55.921Z,6.72
2023-01-15T01:45:26.791Z,6.67
2023-01-15T01:48:01.875Z,6.67
2023-01-15T01:50:29.669Z,6.68
2023-01-15T01:53:07.068Z,6.68
2023-01-15T01:55:36.068Z,6.67
2023-01-15T01:58:05.224Z,6.65
2023-01-15T02:00:33.484Z,6.61
2023-01-15T02:03:02.481Z,6.63
2023-01-15T02:05:35.818Z,6.62
2023-01-15T02:08:02.272Z,6.61
2023-01-15T02:10:29.131Z,6.58
2023-01-15T02:13:03.390Z,6.59
2023-01-15T02:15:38.506Z,6.57
2023-01-15T02:18:19.183Z,6.58
2023-01-15T02:21:13.271Z,6.58
2023-01-15T02:24:00.073Z,6.55
2023-01-15T02:27:07.297Z,6.55
2023-01-15T02:29:51.913Z,6.54
2023-01-15T02:32:28.520Z,6.56
2023-01-15T02:35:00.671Z,6.57
2023-01-15T02:37:30.159Z,6.57
2023-01-15T02:39:59.722Z,6.55
2023-01-15T02:42:28.179Z,6.52
2023-01-15T02:44:57.869Z,6.51
2023-01-15T02:47:29.238Z,6.53
2023-01-15T02:49:59.653Z,6.51
2023-01-15T02:52:31.882Z,6.50
2023-01-15T02:55:06.023Z,6.48
2023-01-15T02:57:37.296Z,6.51
2023-01-15T03:00:09.154Z,6.50
2023-01-15T03:02:42.119Z,6.51
2023-01-15T03:05:15.336Z,6.49
2023-01-15T03:07:51.409Z,6.48
2023-01-15T03:10:18.510Z,6.47
2023-01-15T03:13:02.716Z,6.41
2023-01-15T03:15:53.795Z,6.40
2023-01-15T03:18:22.413Z,6.37
2023-01-15T03:20:56.273Z,6.39
2023-01-15T03:23:27.217Z,6.42
2023-01-15T03:25:53.698Z,6.41
2023-01-15T03:28:25.615Z,6.38
2023-01-15T03:30:52.257Z,6.35
2023-01-15T03:33:19.399Z,6.36
2023-01-15T03:35:58.636Z,6.37
2023-01-15T03:38:32.436Z,6.39
2023-01-15T03:41:03.479Z,6.36
2023-01-15T03:43:46.517Z,6.39
2023-01-15T03:46:23.304Z,6.37
2023-01-15T03:49:25.586Z,6.40
2023-01-15T03:52:02.523Z,6.40
2023-01-15T03:55:06.877Z,6.39
2023-01-15T03:57:43.555Z,6.36
2023-01-15T04:00:24.777Z,6.36
2023-01-15T04:02:53.704Z,6.36
2023-01-15T04:05:21.193Z,6.39
2023-01-15T04:07:49.184Z,6.39
2023-01-15T04:10:16.149Z,6.40
2023-01-15T04:12:42.602Z,6.41
2023-01-15T04:15:11.621Z,6.42
2023-01-15T04:17:38.474Z,6.41
2023-01-15T04:20:05.934Z,6.43
2023-01-15T04:22:32.500Z,6.44
2023-01-15T04:24:59.005Z,6.43
2023-01-15T04:27:27.205Z,6.41
2023-01-15T04:29:53.707Z,6.45
2023-01-15T04:32:20.187Z,6.43
2023-01-15T04:34:46.681Z,6.43
2023-01-15T04:37:13.238Z,6.40
2023-01-15T04:39:39.630Z,6.42
2023-01-15T04:42:24.763Z,6.41
2023-01-15T04:44:51.215Z,6.42
2023-01-15T04:47:17.621Z,6.43
2023-01-15T04:49:44.060Z,6.39
2023-01-15T04:52:10.628Z,6.39
2023-01-15T04:54:37.055Z,6.38
2023-01-15T04:57:03.572Z,6.39
2023-01-15T04:59:30.042Z,6.38
2023-01-15T05:02:06.365Z,6.41
2023-01-15T05:04:33.932Z,6.42
2023-01-15T05:07:02.463Z,6.39
2023-01-15T05:09:28.896Z,6.40
2023-01-15T05:11:55.381Z,6.37
2023-01-15T05:14:21.909Z,6.39
2023-01-15T05:16:48.439Z,6.38
2023-01-15T05:19:14.869Z,6.38
2023-01-15T05:21:42.956Z,6.34
2023-01-15T05:24:14.720Z,6.37
2023-01-15T05:26:42.100Z,6.36
2023-01-15T05:29:10.076Z,6.37
2023-01-15T05:31:36.583Z,6.37
2023-01-15T05:34:03.064Z,6.39
2023-01-15T05:36:31.325Z,6.37
2023-01-15T05:39:01.651Z,6.35
2023-01-15T05:41:48.372Z,6.33
2023-01-15T05:44:17.100Z,6.34
2023-01-15T05:46:44.961Z,6.34
2023-01-15T05:49:17.359Z,6.35
2023-01-15T05:51:44.691Z,6.38
2023-01-15T05:54:14.465Z,6.33
2023-01-15T05:56:41.127Z,6.34
2023-01-15T05:59:08.416Z,6.31
2023-01-15T06:01:35.864Z,6.31
2023-01-15T06:04:04.360Z,6.29
2023-01-15T06:06:31.057Z,6.28
2023-01-15T06:08:57.911Z,6.32
2023-01-15T06:11:24.718Z,6.31
2023-01-15T06:13:51.459Z,6.34
2023-01-15T06:16:18.861Z,6.36
2023-01-15T06:18:45.574Z,6.35
2023-01-15T06:21:13.896Z,6.34
2023-01-15T06:23:41.058Z,6.33
2023-01-15T06:26:12.122Z,6.32
2023-01-15T06:28:38.682Z,6.36
2023-01-15T06:31:10.290Z,6.40
2023-01-15T06:33:37.176Z,6.36
2023-01-15T06:36:09.752Z,6.33
2023-01-15T06:38:36.180Z,6.33
2023-01-15T06:41:04.348Z,6.30
2023-01-15T06:43:49.398Z,6.33
2023-01-15T06:46:35.700Z,6.29
2023-01-15T06:49:02.171Z,6.27
2023-01-15T06:51:30.972Z,6.24
2023-01-15T06:53:57.687Z,6.24
2023-01-15T06:56:24.090Z,6.28
2023-01-15T06:58:50.594Z,6.27
2023-01-15T07:01:17.229Z,6.24
2023-01-15T07:03:43.922Z,6.20
2023-01-15T07:06:12.628Z,6.22
2023-01-15T07:08:39.674Z,6.23
2023-01-15T07:11:09.017Z,6.21
2023-01-15T07:13:36.742Z,6.24
2023-01-15T07:16:04.668Z,6.21
2023-01-15T07:18:32.667Z,6.19
2023-01-15T07:20:59.468Z,6.19
2023-01-15T07:23:26.920Z,6.19
2023-01-15T07:25:53.989Z,6.21
2023-01-15T07:28:24.588Z,6.23
2023-01-15T07:30:51.074Z,6.21
2023-01-15T07:33:17.592Z,6.20
2023-01-15T07:35:44.035Z,6.19
2023-01-15T07:38:10.475Z,6.21
2023-01-15T07:40:38.272Z,6.22
2023-01-15T07:43:23.599Z,6.21
2023-01-15T07:46:08.347Z,6.20
2023-01-15T07:48:53.271Z,6.20
2023-01-15T07:51:22.750Z,6.20
2023-01-15T07:53:49.158Z,6.21
2023-01-15T07:56:15.752Z,6.17
2023-01-15T07:58:42.251Z,6.16
2023-01-15T08:01:08.882Z,6.19
2023-01-15T08:03:35.487Z,6.17
2023-01-15T08:06:02.221Z,6.20
2023-01-15T08:08:28.683Z,6.22
2023-01-15T08:11:13.870Z,6.21
2023-01-15T08:13:58.762Z,6.20
2023-01-15T08:16:25.453Z,6.20
2023-01-15T08:18:52.019Z,6.22
2023-01-15T08:21:19.608Z,6.19
2023-01-15T08:23:47.554Z,6.16
2023-01-15T08:26:14.030Z,6.22
2023-01-15T08:28:40.574Z,6.17
2023-01-15T08:31:08.545Z,6.16
2023-01-15T08:33:35.816Z,6.11
2023-01-15T08:36:02.375Z,6.09
2023-01-15T08:38:29.083Z,6.07
2023-01-15T08:40:58.568Z,6.09
2023-01-15T08:43:29.052Z,6.05
2023-01-15T08:46:00.429Z,6.00
2023-01-15T08:48:29.549Z,5.98
2023-01-15T08:50:56.380Z,5.94
2023-01-15T08:53:24.253Z,5.90
2023-01-15T08:55:51.233Z,5.88
2023-01-15T08:58:17.839Z,5.86
2023-01-15T09:00:44.470Z,5.82
2023-01-15T09:03:11.104Z,5.77
2023-01-15T09:05:38.286Z,5.75
2023-01-15T09:08:06.406Z,5.71
2023-01-15T09:10:34.050Z,5.68
2023-01-15T09:13:01.547Z,5.67
2023-01-15T09:15:29.142Z,5.62
2023-01-15T09:17:56.481Z,5.58
2023-01-15T09:20:23.111Z,5.57
2023-01-15T09:22:49.953Z,5.55
2023-01-15T09:25:18.538Z,5.52
2023-01-15T09:27:46.176Z,5.51
2023-01-15T09:30:22.465Z,5.50
2023-01-15T09:32:49.153Z,5.48
2023-01-15T09:35:15.648Z,5.51
2023-01-15T09:37:42.060Z,5.56
2023-01-15T09:40:40.451Z,5.64
2023-01-15T09:43:20.802Z,5.70
2023-01-15T09:46:02.051Z,5.69
2023-01-15T09:49:04.113Z,5.75
2023-01-15T09:51:33.511Z,5.78
2023-01-15T09:54:05.448Z,5.76
2023-01-15T09:56:37.241Z,5.86
2023-01-15T09:59:16.478Z,5.95
2023-01-15T10:01:43.469Z,6.01
2023-01-15T10:04:44.367Z,6.01
2023-01-15T10:07:33.232Z,6.02
2023-01-15T10:10:07.344Z,6.08
2023-01-15T10:12:36.418Z,6.10
2023-01-15T10:15:24.513Z,6.17
2023-01-15T10:17:57.281Z,6.20
2023-01-15T10:20:23.697Z,6.26
2023-01-15T10:23:05.301Z,6.35
2023-01-15T10:25:42.992Z,6.46
2023-01-15T10:28:28.757Z,6.53
2023-01-15T10:30:56.801Z,6.56
2023-01-15T10:33:40.497Z,6.55
2023-01-15T10:36:18.974Z,6.56
2023-01-15T10:39:16.086Z,6.55
2023-01-15T10:41:51.660Z,6.56
2023-01-15T10:44:30.368Z,6.64
2023-01-15T10:47:01.652Z,6.68
2023-01-15T10:49:29.706Z,6.67
2023-01-15T10:52:31.467Z,6.70
2023-01-15T10:55:15.230Z,6.70
2023-01-15T10:57:45.121Z,6.68
2023-01-15T11:00:12.597Z,6.72
2023-01-15T11:02:49.845Z,6.74
2023-01-15T11:05:21.527Z,6.73
2023-01-15T11:08:16.525Z,6.79
2023-01-15T11:10:40.663Z,6.88
2023-01-15T11:13:55.610Z,6.86
2023-01-15T11:16:45.077Z,6.80
2023-01-15T11:19:42.581Z,6.75
2023-01-15T11:22:20.126Z,6.76
2023-01-15T11:24:49.602Z,6.76
2023-01-15T11:27:19.683Z,6.72
2023-01-15T11:29:50.835Z,6.70
2023-01-15T11:32:30.499Z,6.73
2023-01-15T11:35:18.292Z,6.72
2023-01-15T11:37:44.922Z,6.82
2023-01-15T11:40:19.203Z,6.83
2023-01-15T11:43:05.698Z,6.76
2023-01-15T11:45:51.105Z,6.74
2023-01-15T11:48:39.057Z,6.70
2023-01-15T11:51:13.821Z,6.64
2023-01-15T11:53:46.293Z,6.65
2023-01-15T11:56:25.912Z,6.60
2023-01-15T11:58:58.405Z,6.61
2023-01-15T12:01:31.994Z,6.62
2023-01-15T12:04:01.038Z,6.64
2023-01-15T12:06:29.838Z,6.68
2023-01-15T12:09:17.355Z,6.68
2023-01-15T12:12:01.054Z,6.69
2023-01-15T12:14:52.009Z,6.68
2023-01-15T12:17:46.583Z,6.65
2023-01-15T12:20:22.116Z,6.64
2023-01-15T12:23:09.209Z,6.63
2023-01-15T12:26:05.444Z,6.57
2023-01-15T12:28:36.432Z,6.55
2023-01-15T12:31:21.574Z,6.57
2023-01-15T12:34:03.905Z,6.63
2023-01-15T12:37:00.973Z,6.62
2023-01-15T12:39:32.074Z,6.67
2023-01-15T12:42:21.719Z,6.66
2023-01-15T12:45:06.040Z,6.72
2023-01-15T12:47:57.163Z,6.77
2023-01-15T12:50:45.453Z,6.93
2023-01-15T12:53:17.528Z,6.93
2023-01-15T12:55:52.042Z,6.85
2023-01-15T12:58:40.536Z,6.79
2023-01-15T13:01:19.156Z,6.81
2023-01-15T13:04:01.829Z,6.82
2023-01-15T13:06:29.222Z,6.83
2023-01-15T13:09:25.666Z,6.89
2023-01-15T13:11:52.396Z,6.92
2023-01-15T13:14:21.661Z,6.90
2023-01-15T13:17:02.794Z,6.87
2023-01-15T13:19:46.373Z,6.80
2023-01-15T13:22:22.266Z,6.77
2023-01-15T13:25:07.171Z,6.78
2023-01-15T13:27:54.946Z,6.78
2023-01-15T13:30:39.214Z,6.76
2023-01-15T13:33:31.925Z,6.71
2023-01-15T13:36:12.719Z,6.75
2023-01-15T13:38:47.095Z,6.75
2023-01-15T13:41:43.222Z,6.77
2023-01-15T13:44:21.730Z,6.77
2023-01-15T13:47:00.229Z,6.76
2023-01-15T13:49:34.360Z,6.71
2023-01-15T13:52:04.461Z,6.70
2023-01-15T13:54:36.037Z,6.72
2023-01-15T13:57:24.039Z,6.70
2023-01-15T13:59:50.833Z,6.71
2023-01-15T14:02:25.223Z,6.74
2023-01-15T14:04:51.885Z,6.75
2023-01-15T14:07:32.128Z,6.71
2023-01-15T14:10:17.877Z,6.71
2023-01-15T14:13:09.338Z,6.77
2023-01-15T14:15:57.649Z,6.72
2023-01-15T14:18:45.782Z,6.80
2023-01-15T14:21:27.463Z,6.74
2023-01-15T14:24:31.913Z,6.65
2023-01-15T14:27:11.495Z,6.63
2023-01-15T14:29:46.408Z,6.71
2023-01-15T14:32:36.049Z,6.72
2023-01-15T14:35:03.152Z,6.71
2023-01-15T14:37:48.355Z,6.69
2023-01-15T14:41:12.943Z,6.66
2023-01-15T14:43:47.019Z,6.70
2023-01-15T14:46:28.930Z,6.63
2023-01-15T14:48:55.425Z,6.72
2023-01-15T14:51:34.006Z,6.73
2023-01-15T14:54:11.029Z,6.68
2023-01-15T14:56:44.583Z,6.62
2023-01-15T14:59:27.933Z,6.63
2023-01-15T15:02:00.559Z,6.67
2023-01-15T15:04:49.056Z,6.64
2023-01-15T15:07:18.612Z,6.61
2023-01-15T15:10:06.951Z,6.63
2023-01-15T15:12:45.577Z,6.63
2023-01-15T15:15:27.464Z,6.72
2023-01-15T15:17:59.823Z,6.73
2023-01-15T15:20:45.545Z,6.68
2023-01-15T15:23:39.949Z,6.64
2023-01-15T15:26:19.527Z,6.64
2023-01-15T15:29:05.049Z,6.65
2023-01-15T15:31:37.211Z,6.69
2023-01-15T15:34:06.765Z,6.67
2023-01-15T15:36:39.041Z,6.70
2023-01-15T15:39:18.988Z,6.69
2023-01-15T15:42:08.021Z,6.70
2023-01-15T15:45:04.045Z,6.63
2023-01-15T15:47:57.290Z,6.54
2023-01-15T15:50:35.029Z,6.55
2023-01-15T15:53:04.632Z,6.60
2023-01-15T15:55:43.836Z,6.49
2023-01-15T15:58:36.946Z,6.49
2023-01-15T16:01:03.732Z,6.40
2023-01-15T16:03:33.249Z,6.44
2023-01-15T16:06:05.831Z,6.40
2023-01-15T16:08:36.047Z,6.43
2023-01-15T16:11:07.062Z,6.41
2023-01-15T16:13:40.163Z,6.41
2023-01-15T16:16:08.348Z,6.40
2023-01-15T16:18:41.133Z,6.45
2023-01-15T16:21:09.130Z,6.46
2023-01-15T16:23:35.720Z,6.48
2023-01-15T16:26:05.342Z,6.48
2023-01-15T16:28:47.567Z,6.46
2023-01-15T16:31:15.424Z,6.41
2023-01-15T16:33:42.039Z,6.34
2023-01-15T16:36:08.902Z,6.39
2023-01-15T16:38:42.502Z,6.37
2023-01-15T16:41:20.018Z,6.37
2023-01-15T16:43:59.704Z,6.29
2023-01-15T16:46:39.251Z,6.29
2023-01-15T16:49:24.101Z,6.29
2023-01-15T16:51:51.429Z,6.33
2023-01-15T16:54:30.180Z,6.34
2023-01-15T16:57:00.770Z,6.31
2023-01-15T16:59:27.236Z,6.29
2023-01-15T17:02:11.819Z,6.36
2023-01-15T17:04:42.212Z,6.36
2023-01-15T17:07:15.930Z,6.32
2023-01-15T17:09:50.275Z,6.31
2023-01-15T17:12:29.194Z,6.33
2023-01-15T17:15:19.951Z,6.35
2023-01-15T17:17:51.700Z,6.42
2023-01-15T17:20:19.702Z,6.42
2023-01-15T17:22:49.392Z,6.49
2023-01-15T17:25:32.476Z,6.48
2023-01-15T17:28:00.805Z,6.49
2023-01-15T17:30:32.101Z,6.43
2023-01-15T17:33:02.914Z,6.37
2023-01-15T17:35:37.822Z,6.43
2023-01-15T17:38:06.737Z,6.42
2023-01-15T17:40:33.236Z,6.33
2023-01-15T17:43:00.227Z,6.35
2023-01-15T17:45:29.396Z,6.31
2023-01-15T17:47:55.948Z,6.38
2023-01-15T17:50:22.726Z,6.32
2023-01-15T17:52:49.549Z,6.36
2023-01-15T17:55:38.748Z,6.34
2023-01-15T17:58:24.061Z,6.27
2023-01-15T18:01:11.899Z,6.20
2023-01-15T18:04:03.460Z,6.17
2023-01-15T18:06:30.077Z,6.17
2023-01-15T18:08:59.810Z,6.12
2023-01-15T18:11:26.229Z,6.08
2023-01-15T18:13:52.838Z,6.05
2023-01-15T18:16:19.358Z,6.01
2023-01-15T18:18:45.904Z,5.97
2023-01-15T18:21:12.337Z,5.95
2023-01-15T18:23:39.674Z,5.95
2023-01-15T18:26:07.174Z,5.97
2023-01-15T18:28:35.506Z,5.93
2023-01-15T18:31:03.079Z,5.91
2023-01-15T18:33:30.147Z,5.91
2023-01-15T18:36:08.851Z,5.89
2023-01-15T18:38:40.911Z,5.88
2023-01-15T18:41:12.251Z,5.88
2023-01-15T18:43:57.249Z,5.89
2023-01-15T18:46:42.748Z,5.89
2023-01-15T18:49:09.226Z,5.97
2023-01-15T18:51:35.677Z,5.93
2023-01-15T18:54:02.321Z,5.89
2023-01-15T18:56:42.734Z,5.87
2023-01-15T18:59:11.768Z,5.89
2023-01-15T19:01:39.759Z,5.90
2023-01-15T19:04:08.668Z,5.89
2023-01-15T19:06:35.752Z,5.89
2023-01-15T19:09:02.495Z,5.88
2023-01-15T19:11:29.560Z,5.87
2023-01-15T19:14:14.988Z,5.87
2023-01-15T19:17:00.366Z,5.89
2023-01-15T19:19:27.375Z,5.87
2023-01-15T19:22:23.700Z,5.87
2023-01-15T19:24:50.143Z,5.87
2023-01-15T19:27:16.717Z,5.88
2023-01-15T19:29:43.199Z,5.88
2023-01-15T19:32:09.984Z,5.90
2023-01-15T19:34:36.609Z,5.90
2023-01-15T19:37:03.178Z,5.91
2023-01-15T19:39:30.246Z,5.90
2023-01-15T19:42:17.713Z,5.89
2023-01-15T19:45:03.896Z,5.96
2023-01-15T19:47:54.688Z,6.00
2023-01-15T19:50:26.540Z,5.99
2023-01-15T19:52:55.085Z,5.97
2023-01-15T19:55:23.816Z,5.97
2023-01-15T19:58:00.990Z,5.98
2023-01-15T20:00:28.545Z,5.99
2023-01-15T20:02:56.300Z,6.01
2023-01-15T20:05:24.429Z,6.01
2023-01-15T20:07:53.731Z,6.02
2023-01-15T20:10:23.330Z,5.99
2023-01-15T20:13:09.967Z,5.97
2023-01-15T20:15:42.433Z,5.97
2023-01-15T20:18:08.904Z,5.98
2023-01-15T20:20:35.444Z,5.96
2023-01-15T20:23:01.987Z,5.93
2023-01-15T20:25:30.049Z,5.97
2023-01-15T20:27:58.639Z,5.97
2023-01-15T20:30:26.402Z,5.95
2023-01-15T20:32:55.266Z,5.95
2023-01-15T20:35:25.660Z,5.93
2023-01-15T20:37:52.602Z,5.90
2023-01-15T20:40:29.945Z,5.94
2023-01-15T20:43:14.946Z,5.95
2023-01-15T20:45:41.517Z,5.92
2023-01-15T20:48:11.305Z,5.87
2023-01-15T20:51:01.690Z,5.86
2023-01-15T20:53:33.737Z,5.85
2023-01-15T20:56:01.754Z,5.83
2023-01-15T20:58:28.390Z,5.81
2023-01-15T21:01:02.469Z,5.81
2023-01-15T21:03:42.065Z,5.78
2023-01-15T21:06:09.316Z,5.78
2023-01-15T21:08:35.856Z,5.80
2023-01-15T21:11:02.823Z,5.79
2023-01-15T21:13:30.989Z,5.79
2023-01-15T21:16:02.902Z,5.83
2023-01-15T21:18:30.477Z,5.87
2023-01-15T21:20:56.971Z,5.87
2023-01-15T21:23:24.352Z,5.91
2023-01-15T21:25:50.929Z,5.90
2023-01-15T21:28:17.566Z,5.89
2023-01-15T21:30:44.827Z,5.83
2023-01-15T21:33:11.591Z,5.76
2023-01-15T21:35:40.317Z,5.69
2023-01-15T21:38:08.187Z,5.62
2023-01-15T21:40:37.549Z,5.56
2023-01-15T21:43:23.638Z,5.51
2023-01-15T21:45:51.062Z,5.49
2023-01-15T21:48:18.365Z,5.46
2023-01-15T21:50:45.127Z,5.43
2023-01-15T21:53:11.666Z,5.38
2023-01-15T21:55:38.121Z,5.37
2023-01-15T21:58:04.665Z,5.35
2023-01-15T22:00:31.142Z,5.33
2023-01-15T22:02:58.468Z,5.31
2023-01-15T22:05:25.106Z,5.31
2023-01-15T22:07:51.582Z,5.32
2023-01-15T22:10:18.131Z,5.31
2023-01-15T22:12:44.686Z,5.31
2023-01-15T22:15:12.011Z,5.30
2023-01-15T22:17:38.540Z,5.30
2023-01-15T22:20:06.285Z,5.27
2023-01-15T22:22:35.810Z,5.28
2023-01-15T22:25:02.645Z,5.28
2023-01-15T22:27:30.388Z,5.27
2023-01-15T22:29:56.969Z,5.25
2023-01-15T22:32:23.501Z,5.25
2023-01-15T22:34:49.961Z,5.25
2023-01-15T22:37:16.463Z,5.25
2023-01-15T22:39:42.977Z,5.25
2023-01-15T22:42:24.567Z,5.27
2023-01-15T22:44:51.632Z,5.29
2023-01-15T22:47:19.359Z,5.29
2023-01-15T22:49:46.046Z,5.30
2023-01-15T22:52:12.494Z,5.30
2023-01-15T22:54:38.932Z,5.28
2023-01-15T22:57:05.392Z,5.30
2023-01-15T22:59:31.806Z,5.32
2023-01-15T23:01:58.270Z,5.31
2023-01-15T23:04:25.349Z,5.33
2023-01-15T23:06:52.826Z,5.32
2023-01-15T23:09:23.630Z,5.34
2023-01-15T23:11:51.520Z,5.35
2023-01-15T23:14:19.536Z,5.37
2023-01-15T23:16:46.245Z,5.38
2023-01-15T23:19:14.206Z,5.41
2023-01-15T23:21:41.396Z,5.42
2023-01-15T23:24:08.672Z,5.45
2023-01-15T23:26:35.664Z,5.43
2023-01-15T23:29:02.143Z,5.43
2023-01-15T23:31:29.519Z,5.45
2023-01-15T23:33:56.283Z,5.44
2023-01-15T23:36:23.188Z,5.44
2023-01-15T23:38:49.620Z,5.43
2023-01-15T23:41:18.776Z,5.42
2023-01-15T23:44:03.886Z,5.47
2023-01-15T23:46:35.295Z,5.51
2023-01-15T23:49:04.725Z,5.57
2023-01-15T23:51:32.028Z,5.57
2023-01-15T23:53:59.662Z,5.56
2023-01-15T23:56:26.912Z,5.55
2023-01-15T23:58:53.766Z,5.54
